Ballycastle, United Kingdom
Current Conditions -  °F | °C
As of 3:50 AM on Wednesday 28 Jan 2015 (Local Time) from EGPI Reporting Station
Rain Showers Rain Showers  
Wind Chill: 35°   Ceiling: Unl
Heat Index: 45°   Visibility: 6mi
Dew Point: 43°   Wind: 29mph
Humidity: 93%   Direction: 250°WSW
Pressure: 29.38"   Gusts: NA
Location:  55.2°N, 6.24°W
Report Text: EGPI 280350Z AUTO 25025KT 9999 -SHRA SCT030/// 07/06 Q0995
Loading
Personal Weather Stations






























Interactive Weather Map New forecast layout! Learn more

10-Day Weather Forecast

Advertisements
Track Severe Weather on mobile